createdAt,value
2019-04-10T00:00:28.608Z,0.00
2019-04-10T00:01:27.827Z,0.00
2019-04-10T00:02:27.580Z,0.00
2019-04-10T00:03:32.817Z,0.00
2019-04-10T00:04:29.487Z,0.00
2019-04-10T00:05:27.766Z,0.00
2019-04-10T00:06:27.887Z,0.00
2019-04-10T00:07:27.492Z,0.00
2019-04-10T00:08:28.324Z,0.00
2019-04-10T00:09:27.473Z,0.00
2019-04-10T00:10:27.796Z,0.00
2019-04-10T00:11:27.459Z,0.00
2019-04-10T00:12:27.583Z,0.00
2019-04-10T00:13:27.433Z,0.00
2019-04-10T00:14:28.246Z,0.00
2019-04-10T00:15:28.376Z,0.00
2019-04-10T00:16:27.793Z,0.00
2019-04-10T00:17:27.391Z,0.00
2019-04-10T00:18:27.374Z,0.00
2019-04-10T00:19:27.377Z,0.00
2019-04-10T00:20:27.375Z,0.00
2019-04-10T00:21:27.395Z,0.00
2019-04-10T00:22:28.409Z,0.00
2019-04-10T00:23:27.322Z,0.00
2019-04-10T00:24:28.174Z,0.00
2019-04-10T00:25:27.311Z,0.00
2019-04-10T00:26:27.841Z,0.00
2019-04-10T00:27:28.230Z,0.00
2019-04-10T00:28:27.602Z,0.00
2019-04-10T00:29:27.979Z,0.00
2019-04-10T00:30:27.298Z,0.00
2019-04-10T00:31:27.233Z,0.00
2019-04-10T00:32:27.909Z,0.00
2019-04-10T00:33:27.216Z,0.00
2019-04-10T00:34:27.202Z,0.00
2019-04-10T00:35:27.655Z,0.00
2019-04-10T00:36:27.196Z,0.00
2019-04-10T00:37:30.297Z,0.00
2019-04-10T00:38:27.155Z,0.00
2019-04-10T00:39:27.146Z,0.00
2019-04-10T00:40:27.678Z,0.00
2019-04-10T00:41:27.980Z,0.00
2019-04-10T00:42:27.510Z,0.00
2019-04-10T00:43:27.105Z,0.00
2019-04-10T00:44:27.890Z,0.00
2019-04-10T00:45:27.193Z,0.00
2019-04-10T00:46:27.089Z,0.00
2019-04-10T00:47:27.067Z,0.00
2019-04-10T00:48:27.945Z,0.00
2019-04-10T00:49:27.087Z,0.00
2019-04-10T00:50:27.031Z,0.00
2019-04-10T00:51:27.604Z,0.00
2019-04-10T00:52:27.013Z,0.00
2019-04-10T00:53:27.325Z,0.00
2019-04-10T00:54:26.991Z,0.00
2019-04-10T00:55:28.633Z,0.00
2019-04-10T00:56:26.984Z,0.00
2019-04-10T00:57:27.517Z,0.00
2019-04-10T00:58:27.953Z,0.00
2019-04-10T00:59:26.944Z,0.00
2019-04-10T01:00:26.932Z,0.00
2019-04-10T01:01:27.689Z,0.00
2019-04-10T01:02:26.972Z,0.00
2019-04-10T01:03:26.912Z,0.00
2019-04-10T01:04:26.886Z,0.00
2019-04-10T01:05:27.031Z,0.00
2019-04-10T01:06:26.888Z,0.00
2019-04-10T01:07:36.466Z,0.00
2019-04-10T01:08:28.682Z,0.00
2019-04-10T01:09:26.830Z,0.00
2019-04-10T01:10:26.820Z,0.00
2019-04-10T01:11:27.392Z,0.00
2019-04-10T01:12:27.754Z,0.00
2019-04-10T01:13:27.137Z,0.00
2019-04-10T01:14:26.792Z,0.00
2019-04-10T01:15:26.792Z,0.00
2019-04-10T01:16:27.196Z,0.00
2019-04-10T01:17:26.745Z,0.00
2019-04-10T01:18:26.841Z,0.00
2019-04-10T01:19:26.788Z,0.00
2019-04-10T01:20:26.712Z,0.00
2019-04-10T01:21:26.731Z,0.00
2019-04-10T01:22:27.495Z,0.00
2019-04-10T01:23:26.799Z,0.00
2019-04-10T01:24:27.874Z,0.00
2019-04-10T01:25:26.663Z,0.00
2019-04-10T01:26:28.081Z,0.00
2019-04-10T01:27:27.702Z,0.00
2019-04-10T01:28:26.818Z,0.00
2019-04-10T01:29:27.267Z,0.00
2019-04-10T01:30:26.608Z,0.00
2019-04-10T01:31:26.846Z,0.00
2019-04-10T01:32:26.602Z,0.00
2019-04-10T01:33:26.577Z,0.00
2019-04-10T01:34:27.516Z,0.00
2019-04-10T01:35:26.677Z,0.00
2019-04-10T01:36:27.001Z,0.00
2019-04-10T01:37:26.945Z,0.00
2019-04-10T01:38:27.233Z,0.00
2019-04-10T01:39:26.569Z,0.00
2019-04-10T01:40:26.753Z,0.00
2019-04-10T01:41:26.492Z,0.00
2019-04-10T01:42:26.482Z,0.00
2019-04-10T01:43:26.673Z,0.00
2019-04-10T01:44:26.878Z,0.00
2019-04-10T01:45:27.279Z,0.00
2019-04-10T01:46:26.511Z,0.00
2019-04-10T01:47:26.908Z,0.00
2019-04-10T01:48:26.420Z,0.00
2019-04-10T01:49:26.422Z,0.00
2019-04-10T01:50:26.424Z,0.00
2019-04-10T01:51:27.479Z,0.00
2019-04-10T01:52:26.382Z,0.00
2019-04-10T01:53:26.366Z,0.00
2019-04-10T01:54:26.987Z,0.00
2019-04-10T01:55:29.879Z,0.00
2019-04-10T01:56:31.623Z,0.00
2019-04-10T01:57:28.186Z,0.00
2019-04-10T01:58:27.285Z,0.00
2019-04-10T01:59:26.320Z,0.00
2019-04-10T02:00:27.774Z,0.00
2019-04-10T02:01:26.281Z,0.00
2019-04-10T02:02:27.302Z,0.00
2019-04-10T02:03:26.279Z,0.00
2019-04-10T02:04:26.833Z,0.00
2019-04-10T02:05:26.245Z,0.00
2019-04-10T02:06:27.148Z,0.00
2019-04-10T02:07:26.504Z,0.00
2019-04-10T02:08:26.210Z,0.00
2019-04-10T02:09:26.208Z,0.00
2019-04-10T02:10:26.190Z,0.00
2019-04-10T02:11:26.183Z,0.00
2019-04-10T02:12:26.337Z,0.00
2019-04-10T02:13:26.155Z,0.00
2019-04-10T02:14:26.186Z,0.00
2019-04-10T02:15:26.156Z,0.00
2019-04-10T02:16:27.131Z,0.00
2019-04-10T02:17:26.112Z,0.00
2019-04-10T02:18:26.100Z,0.00
2019-04-10T02:19:26.215Z,0.00
2019-04-10T02:20:27.086Z,0.00
2019-04-10T02:21:26.066Z,0.00
2019-04-10T02:22:26.627Z,0.00
2019-04-10T02:23:26.149Z,0.00
2019-04-10T02:24:27.194Z,0.00
2019-04-10T02:25:26.040Z,0.00
2019-04-10T02:26:26.017Z,0.00
2019-04-10T02:27:26.740Z,0.00
2019-04-10T02:28:26.951Z,0.00
2019-04-10T02:29:26.024Z,0.00
2019-04-10T02:30:26.414Z,0.00
2019-04-10T02:31:27.992Z,0.00
2019-04-10T02:32:26.523Z,0.00
2019-04-10T02:33:27.475Z,0.00
2019-04-10T02:34:25.941Z,0.00
2019-04-10T02:35:27.326Z,0.00
2019-04-10T02:36:27.734Z,0.00
2019-04-10T02:37:27.106Z,0.00
2019-04-10T02:38:43.055Z,0.00
2019-04-10T02:39:35.491Z,0.00
2019-04-10T02:40:26.901Z,0.00
2019-04-10T02:41:25.865Z,0.00
2019-04-10T02:42:26.777Z,0.00
2019-04-10T02:43:27.206Z,0.00
2019-04-10T02:44:27.978Z,0.00
2019-04-10T02:45:25.984Z,0.00
2019-04-10T02:46:26.885Z,0.00
2019-04-10T02:47:26.553Z,0.00
2019-04-10T02:48:25.793Z,0.00
2019-04-10T02:49:25.779Z,0.00
2019-04-10T02:50:27.196Z,0.00
2019-04-10T02:51:27.053Z,0.00
2019-04-10T02:52:26.013Z,0.00
2019-04-10T02:53:25.869Z,0.00
2019-04-10T02:54:27.069Z,0.00
2019-04-10T02:55:27.209Z,0.00
2019-04-10T02:56:25.705Z,0.00
2019-04-10T02:57:25.690Z,0.00
2019-04-10T02:58:26.500Z,0.00
2019-04-10T02:59:27.011Z,0.00
2019-04-10T03:00:26.554Z,0.00
2019-04-10T03:01:27.038Z,0.00
2019-04-10T03:02:26.628Z,0.00
2019-04-10T03:03:25.631Z,0.00
2019-04-10T03:04:26.720Z,0.00
2019-04-10T03:05:27.267Z,0.00
2019-04-10T03:06:27.029Z,0.00
2019-04-10T03:07:25.912Z,0.00
2019-04-10T03:08:41.362Z,0.00
2019-04-10T03:09:42.049Z,0.00
2019-04-10T03:10:38.319Z,0.00
2019-04-10T03:11:27.963Z,0.00
2019-04-10T03:12:25.579Z,0.00
2019-04-10T03:13:26.972Z,0.00
2019-04-10T03:14:26.422Z,0.00
2019-04-10T03:15:25.549Z,0.00
2019-04-10T03:16:25.485Z,0.00
2019-04-10T03:17:26.056Z,0.00
2019-04-10T03:18:25.464Z,0.00
2019-04-10T03:19:25.587Z,0.00
2019-04-10T03:20:26.550Z,0.00
2019-04-10T03:21:25.428Z,0.00
2019-04-10T03:22:26.588Z,0.00
2019-04-10T03:23:25.409Z,0.00
2019-04-10T03:24:25.413Z,0.00
2019-04-10T03:25:25.399Z,0.00
2019-04-10T03:26:25.667Z,0.00
2019-04-10T03:27:26.052Z,0.00
2019-04-10T03:28:25.359Z,0.00
2019-04-10T03:29:25.346Z,0.00
2019-04-10T03:30:27.181Z,0.00
2019-04-10T03:31:27.343Z,0.00
2019-04-10T03:32:28.562Z,0.00
2019-04-10T03:33:29.843Z,0.00
2019-04-10T03:34:28.975Z,0.00
2019-04-10T03:35:25.294Z,0.00
2019-04-10T03:36:25.314Z,0.00
2019-04-10T03:37:26.426Z,0.00
2019-04-10T03:38:25.776Z,0.00
2019-04-10T03:39:25.795Z,0.00
2019-04-10T03:40:25.258Z,0.00
2019-04-10T03:41:26.119Z,0.00
2019-04-10T03:42:25.334Z,0.00
2019-04-10T03:43:25.814Z,0.00
2019-04-10T03:44:25.189Z,0.00
2019-04-10T03:45:25.378Z,4.00
2019-04-10T03:46:25.634Z,4.00
2019-04-10T03:47:25.208Z,0.00
2019-04-10T03:48:25.256Z,0.00
2019-04-10T03:49:25.529Z,4.00
2019-04-10T03:50:25.828Z,0.00
2019-04-10T03:51:25.129Z,4.00
2019-04-10T03:52:25.345Z,4.00
2019-04-10T03:53:25.094Z,8.00
2019-04-10T03:54:25.080Z,4.00
2019-04-10T03:55:25.218Z,8.00
2019-04-10T03:56:25.556Z,12.00
2019-04-10T03:57:25.049Z,12.00
2019-04-10T03:58:25.163Z,12.00
2019-04-10T03:59:25.028Z,16.00
2019-04-10T04:00:25.857Z,16.00
2019-04-10T04:01:25.114Z,20.00
2019-04-10T04:02:25.009Z,28.00
2019-04-10T04:03:25.000Z,28.00
2019-04-10T04:04:25.805Z,32.00
2019-04-10T04:05:24.969Z,40.00
2019-04-10T04:06:25.802Z,44.00
2019-04-10T04:07:26.991Z,52.00
2019-04-10T04:08:25.675Z,60.00
2019-04-10T04:09:24.939Z,68.00
2019-04-10T04:10:24.911Z,76.00
2019-04-10T04:11:25.775Z,84.00
2019-04-10T04:12:24.892Z,96.00
2019-04-10T04:13:25.773Z,112.00
2019-04-10T04:14:24.880Z,124.00
2019-04-10T04:15:24.857Z,140.00
2019-04-10T04:16:24.874Z,160.00
2019-04-10T04:17:24.852Z,180.00
2019-04-10T04:18:24.928Z,208.00
2019-04-10T04:19:24.818Z,232.00
2019-04-10T04:20:24.824Z,256.00
2019-04-10T04:21:25.827Z,284.00
2019-04-10T04:22:25.034Z,304.00
2019-04-10T04:23:25.751Z,336.00
2019-04-10T04:24:25.544Z,364.00
2019-04-10T04:25:24.763Z,396.00
2019-04-10T04:26:25.317Z,428.00
2019-04-10T04:27:25.056Z,468.00
2019-04-10T04:28:25.755Z,512.00
2019-04-10T04:29:24.807Z,556.00
2019-04-10T04:30:24.749Z,604.00
2019-04-10T04:31:24.973Z,648.00
2019-04-10T04:32:24.681Z,696.00
2019-04-10T04:33:24.669Z,744.00
2019-04-10T04:34:25.037Z,792.00
2019-04-10T04:35:25.609Z,844.00
2019-04-10T04:36:24.683Z,892.00
2019-04-10T04:37:24.625Z,948.00
2019-04-10T04:38:25.611Z,1000.00
2019-04-10T04:39:26.968Z,1064.00
2019-04-10T04:40:24.613Z,1136.00
2019-04-10T04:41:25.331Z,1216.00
2019-04-10T04:42:24.571Z,1296.00
2019-04-10T04:43:25.144Z,1352.00
2019-04-10T04:44:24.668Z,1412.00
2019-04-10T04:45:25.598Z,1484.00
2019-04-10T04:46:24.558Z,1572.00
2019-04-10T04:47:24.531Z,1664.00
2019-04-10T04:48:24.516Z,1760.00
2019-04-10T04:49:24.508Z,1852.00
2019-04-10T04:50:24.763Z,1940.00
2019-04-10T04:51:25.875Z,2000.00
2019-04-10T04:52:24.465Z,2040.00
2019-04-10T04:53:24.459Z,2072.00
2019-04-10T04:54:25.486Z,2120.00
2019-04-10T04:55:24.433Z,2180.00
2019-04-10T04:56:24.442Z,2264.00
2019-04-10T04:57:24.610Z,2384.00
2019-04-10T04:58:24.423Z,2488.00
2019-04-10T04:59:24.402Z,2596.00
2019-04-10T05:00:24.386Z,2728.00
2019-04-10T05:01:24.399Z,2836.00
2019-04-10T05:02:24.368Z,2912.00
2019-04-10T05:03:25.604Z,2956.00
2019-04-10T05:04:25.034Z,2960.00
2019-04-10T05:05:25.242Z,2968.00
2019-04-10T05:06:24.431Z,3008.00
2019-04-10T05:07:24.800Z,3060.00
2019-04-10T05:08:24.295Z,3128.00
2019-04-10T05:09:33.042Z,3240.00
2019-04-10T05:10:25.290Z,3332.00
2019-04-10T05:11:24.600Z,3440.00
2019-04-10T05:14:29.464Z,3612.00
2019-04-10T05:15:29.052Z,3624.00
2019-04-10T05:16:28.119Z,3656.00
2019-04-10T05:17:28.824Z,3732.00
2019-04-10T05:18:29.584Z,3772.00
2019-04-10T05:19:28.299Z,3800.00
2019-04-10T05:20:40.327Z,3832.00
2019-04-10T05:21:29.465Z,3912.00
2019-04-10T05:22:28.750Z,4000.00
2019-04-10T05:23:29.013Z,4116.00
2019-04-10T05:24:28.160Z,4216.00
2019-04-10T05:25:29.392Z,4344.00
2019-04-10T05:26:28.227Z,4436.00
2019-04-10T05:27:28.485Z,4520.00
2019-04-10T05:28:29.495Z,4620.00
2019-04-10T05:29:30.677Z,4724.00
2019-04-10T05:30:27.810Z,4828.00
2019-04-10T05:31:27.885Z,4928.00
2019-04-10T05:32:28.027Z,5020.00
2019-04-10T05:33:28.862Z,5140.00
2019-04-10T05:34:27.765Z,5264.00
2019-04-10T05:35:27.869Z,5400.00
2019-04-10T05:36:27.745Z,5508.00
2019-04-10T05:37:27.745Z,5588.00
2019-04-10T05:38:27.717Z,5712.00
2019-04-10T05:39:39.153Z,5812.00
2019-04-10T05:40:28.733Z,5892.00
2019-04-10T05:41:27.685Z,5932.00
2019-04-10T05:42:28.869Z,5924.00
2019-04-10T05:43:28.172Z,5912.00
2019-04-10T05:44:27.781Z,5924.00
2019-04-10T05:45:27.706Z,5924.00
2019-04-10T05:46:28.342Z,5920.00
2019-04-10T05:47:28.333Z,5932.00
2019-04-10T05:48:27.898Z,5928.00
2019-04-10T05:49:27.601Z,5992.00
2019-04-10T05:50:27.867Z,6088.00
2019-04-10T05:51:27.593Z,6196.00
2019-04-10T05:52:27.579Z,6360.00
2019-04-10T05:53:27.555Z,6468.00
2019-04-10T05:54:27.544Z,6484.00
2019-04-10T05:55:27.532Z,6528.00
2019-04-10T05:56:27.940Z,6652.00
2019-04-10T05:57:28.715Z,6784.00
2019-04-10T05:58:27.505Z,6968.00
2019-04-10T05:59:28.093Z,7176.00
2019-04-10T06:00:27.479Z,7364.00
2019-04-10T06:01:35.083Z,7520.00
2019-04-10T06:02:28.489Z,7656.00
2019-04-10T06:03:28.225Z,7820.00
2019-04-10T06:04:27.514Z,8044.00
2019-04-10T06:05:27.430Z,8392.00
2019-04-10T06:06:28.382Z,8724.00
2019-04-10T06:07:27.421Z,9080.00
2019-04-10T06:08:27.413Z,9520.00
2019-04-10T06:09:27.396Z,11252.00
2019-04-10T06:10:27.376Z,11892.00
2019-04-10T06:11:27.368Z,13616.00
2019-04-10T06:12:28.479Z,10856.00
2019-04-10T06:13:27.717Z,10848.00
2019-04-10T06:14:28.274Z,11096.00
2019-04-10T06:15:27.329Z,11440.00
2019-04-10T06:16:28.158Z,11704.00
2019-04-10T06:17:27.315Z,13016.00
2019-04-10T06:18:27.295Z,12652.00
2019-04-10T06:19:27.279Z,13748.00
2019-04-10T06:20:27.268Z,19328.00
2019-04-10T06:21:28.487Z,27200.00
2019-04-10T06:22:28.411Z,26048.00
2019-04-10T06:23:27.542Z,14768.00
2019-04-10T06:24:27.927Z,13332.00
2019-04-10T06:25:28.771Z,13444.00
2019-04-10T06:26:28.004Z,14324.00
2019-04-10T06:27:28.255Z,22272.00
2019-04-10T06:28:27.936Z,25504.00
2019-04-10T06:29:27.176Z,16928.00
2019-04-10T06:30:27.991Z,15184.00
2019-04-10T06:31:28.399Z,14872.00
2019-04-10T06:32:27.558Z,14920.00
2019-04-10T06:33:28.444Z,15168.00
2019-04-10T06:34:27.125Z,15316.00
2019-04-10T06:35:28.202Z,15120.00
2019-04-10T06:36:27.235Z,15132.00
2019-04-10T06:37:28.213Z,15360.00
2019-04-10T06:38:27.080Z,16288.00
2019-04-10T06:39:27.072Z,17312.00
2019-04-10T06:40:27.975Z,24128.00
2019-04-10T06:41:27.048Z,26816.00
2019-04-10T06:42:27.029Z,30848.00
2019-04-10T06:43:27.043Z,22656.00
2019-04-10T06:44:27.997Z,25312.00
2019-04-10T06:45:27.939Z,17472.00
2019-04-10T06:46:26.993Z,19712.00
2019-04-10T06:47:26.987Z,33952.00
2019-04-10T06:48:27.891Z,33728.00
2019-04-10T06:49:27.057Z,26432.00
2019-04-10T06:50:26.943Z,36128.00
2019-04-10T06:51:27.264Z,29888.00
2019-04-10T06:52:27.048Z,23552.00
2019-04-10T06:53:26.958Z,20640.00
2019-04-10T06:54:26.928Z,18528.00
2019-04-10T06:55:27.991Z,19040.00
2019-04-10T06:56:27.177Z,26720.00
2019-04-10T06:57:27.013Z,37984.00
2019-04-10T06:58:27.629Z,19648.00
2019-04-10T06:59:27.139Z,17664.00
2019-04-10T07:00:26.839Z,24480.00
2019-04-10T07:01:39.014Z,19968.00
2019-04-10T07:02:30.842Z,19520.00
2019-04-10T07:03:43.685Z,21440.00
2019-04-10T07:04:28.401Z,19360.00
2019-04-10T07:05:37.176Z,21856.00
2019-04-10T07:06:44.620Z,19328.00
2019-04-10T07:07:42.347Z,19200.00
2019-04-10T07:08:27.769Z,18720.00
2019-04-10T07:09:27.251Z,24416.00
2019-04-10T07:10:33.551Z,18432.00
2019-04-10T07:11:30.718Z,17984.00
2019-04-10T07:12:30.164Z,17760.00
2019-04-10T07:13:28.073Z,17696.00
2019-04-10T07:14:26.883Z,17728.00
2019-04-10T07:15:27.348Z,17824.00
2019-04-10T07:16:30.793Z,21376.00
2019-04-10T07:17:27.657Z,19552.00
2019-04-10T07:18:26.660Z,20768.00
2019-04-10T07:19:26.635Z,35520.00
2019-04-10T07:20:26.634Z,22016.00
2019-04-10T07:21:27.972Z,19008.00
2019-04-10T07:22:26.908Z,18688.00
2019-04-10T07:23:28.935Z,18304.00
2019-04-10T07:24:27.114Z,17856.00
2019-04-10T07:25:26.568Z,17280.00
2019-04-10T07:26:35.398Z,17056.00
2019-04-10T07:27:27.856Z,16448.00
2019-04-10T07:28:27.748Z,16352.00
2019-04-10T07:29:28.242Z,16480.00
2019-04-10T07:30:27.660Z,17056.00
2019-04-10T07:31:27.350Z,17760.00
2019-04-10T07:32:27.742Z,18656.00
2019-04-10T07:33:26.700Z,20192.00
2019-04-10T07:34:28.529Z,25600.00
2019-04-10T07:35:28.615Z,38336.00
2019-04-10T07:36:28.504Z,20992.00
2019-04-10T07:37:26.956Z,20640.00
2019-04-10T07:38:28.267Z,20896.00
2019-04-10T07:39:29.496Z,21536.00
2019-04-10T07:40:28.300Z,21504.00
2019-04-10T07:41:26.557Z,21824.00
2019-04-10T07:42:32.336Z,22656.00
2019-04-10T07:43:29.107Z,28512.00
2019-04-10T07:44:26.365Z,58112.00
2019-04-10T07:45:27.305Z,52960.00
2019-04-10T07:46:26.365Z,33632.00
2019-04-10T07:47:27.232Z,24672.00
2019-04-10T07:48:27.363Z,25632.00
2019-04-10T07:49:29.675Z,28192.00
2019-04-10T07:50:26.298Z,24352.00
2019-04-10T07:51:26.323Z,23456.00
2019-04-10T07:52:27.462Z,25184.00
2019-04-10T07:53:26.810Z,22816.00
2019-04-10T07:54:26.746Z,23136.00
2019-04-10T07:55:26.246Z,22784.00
2019-04-10T07:56:26.743Z,22496.00
2019-04-10T07:57:26.691Z,21760.00
2019-04-10T07:58:26.989Z,21536.00
2019-04-10T07:59:27.167Z,21472.00
2019-04-10T08:00:26.968Z,21344.00
2019-04-10T08:01:26.441Z,21408.00
2019-04-10T08:02:26.170Z,21632.00
2019-04-10T08:03:26.166Z,22528.00
2019-04-10T08:04:26.848Z,24352.00
2019-04-10T08:05:26.996Z,26304.00
2019-04-10T08:06:26.128Z,24224.00
2019-04-10T08:07:30.425Z,24288.00
2019-04-10T08:08:27.828Z,24736.00
2019-04-10T08:09:26.842Z,24896.00
2019-04-10T08:10:26.401Z,24608.00
2019-04-10T08:11:26.199Z,24160.00
2019-04-10T08:12:37.557Z,23840.00
2019-04-10T08:13:27.052Z,24064.00
2019-04-10T08:14:27.219Z,24320.00
2019-04-10T08:15:27.255Z,25536.00
2019-04-10T08:16:26.021Z,26816.00
2019-04-10T08:17:26.256Z,28416.00
2019-04-10T08:18:25.996Z,27424.00
2019-04-10T08:19:27.577Z,33344.00
2019-04-10T08:20:26.173Z,26560.00
2019-04-10T08:21:25.976Z,25696.00
2019-04-10T08:22:26.437Z,25088.00
2019-04-10T08:23:26.052Z,24192.00
2019-04-10T08:24:25.961Z,24256.00
2019-04-10T08:25:26.911Z,24768.00
2019-04-10T08:26:25.918Z,25504.00
2019-04-10T08:27:25.915Z,26496.00
2019-04-10T08:28:27.966Z,27776.00
2019-04-10T08:29:26.045Z,30944.00
2019-04-10T08:30:25.985Z,28224.00
2019-04-10T08:31:25.860Z,27296.00
2019-04-10T08:32:25.872Z,27200.00
2019-04-10T08:33:26.026Z,28320.00
2019-04-10T08:34:26.113Z,28320.00
2019-04-10T08:35:25.810Z,26880.00
2019-04-10T08:36:25.802Z,26912.00
2019-04-10T08:37:26.304Z,27936.00
2019-04-10T08:38:25.944Z,30080.00
2019-04-10T08:39:35.256Z,29632.00
2019-04-10T08:40:27.776Z,32288.00
2019-04-10T08:41:27.098Z,39712.00
2019-04-10T08:42:26.585Z,51744.00
2019-04-10T08:43:26.661Z,30080.00
2019-04-10T08:44:25.718Z,30432.00
2019-04-10T08:45:36.721Z,31296.00
2019-04-10T08:46:26.712Z,33152.00
2019-04-10T08:47:26.726Z,45440.00
2019-04-10T08:48:27.605Z,59360.00
2019-04-10T08:49:25.669Z,43712.00
2019-04-10T08:50:26.007Z,34176.00
2019-04-10T08:51:25.774Z,36960.00
2019-04-10T08:52:25.628Z,49184.00
2019-04-10T08:53:27.129Z,41696.00
2019-04-10T08:54:25.900Z,33120.00
2019-04-10T08:55:26.157Z,33088.00
2019-04-10T08:56:25.591Z,35776.00
2019-04-10T08:57:25.673Z,35808.00
2019-04-10T08:58:25.561Z,38304.00
2019-04-10T08:59:25.719Z,47520.00
2019-04-10T09:00:26.770Z,39040.00
2019-04-10T09:01:25.540Z,48928.00
2019-04-10T09:02:26.225Z,58656.00
2019-04-10T09:03:26.656Z,59904.00
2019-04-10T09:04:26.070Z,51840.00
2019-04-10T09:05:25.762Z,30400.00
2019-04-10T09:06:25.488Z,28832.00
2019-04-10T09:07:26.319Z,31904.00
2019-04-10T09:08:26.566Z,37760.00
2019-04-10T09:09:25.717Z,38528.00
2019-04-10T09:10:26.057Z,49760.00
2019-04-10T09:11:28.420Z,74560.00
2019-04-10T09:12:26.069Z,37504.00
2019-04-10T09:13:25.404Z,29216.00
2019-04-10T09:14:26.263Z,34400.00
2019-04-10T09:15:25.755Z,42496.00
2019-04-10T09:16:25.378Z,37312.00
2019-04-10T09:17:25.363Z,35264.00
2019-04-10T09:18:25.356Z,38240.00
2019-04-10T09:19:25.687Z,56736.00
2019-04-10T09:20:25.331Z,54848.00
2019-04-10T09:21:25.330Z,28960.00
2019-04-10T09:22:25.311Z,27744.00
2019-04-10T09:23:37.368Z,26496.00
2019-04-10T09:24:26.340Z,26048.00
2019-04-10T09:25:25.278Z,27072.00
2019-04-10T09:26:26.445Z,59296.00
2019-04-10T09:27:25.266Z,25728.00
2019-04-10T09:28:26.441Z,24928.00
2019-04-10T09:29:25.804Z,26048.00
2019-04-10T09:30:25.243Z,39392.00
2019-04-10T09:31:26.000Z,38272.00
2019-04-10T09:32:26.359Z,58144.00
2019-04-10T09:33:28.253Z,64480.00
2019-04-10T09:34:26.180Z,57632.00
2019-04-10T09:35:25.185Z,42720.00
2019-04-10T09:36:25.182Z,32608.00
2019-04-10T09:37:26.109Z,45088.00
2019-04-10T09:38:26.137Z,58656.00
2019-04-10T09:39:25.403Z,72576.00
2019-04-10T09:40:25.129Z,47040.00
2019-04-10T09:41:25.903Z,38912.00
2019-04-10T09:42:25.624Z,38496.00
2019-04-10T09:43:25.323Z,34304.00
2019-04-10T09:44:25.677Z,58048.00
2019-04-10T09:45:25.263Z,36576.00
2019-04-10T09:46:25.055Z,45664.00
2019-04-10T09:47:25.040Z,43680.00
2019-04-10T09:48:25.029Z,35200.00
2019-04-10T09:49:33.923Z,35616.00
2019-04-10T09:50:26.265Z,36704.00
2019-04-10T09:51:25.620Z,34848.00
2019-04-10T09:52:25.768Z,33824.00
2019-04-10T09:53:24.979Z,34016.00
2019-04-10T09:54:25.936Z,33600.00
2019-04-10T09:55:24.973Z,33760.00
2019-04-10T09:56:25.526Z,34592.00
2019-04-10T09:57:24.934Z,35552.00
2019-04-10T09:58:26.102Z,36864.00
2019-04-10T09:59:32.906Z,37088.00
2019-04-10T10:00:25.928Z,35648.00
2019-04-10T10:01:25.997Z,36512.00
2019-04-10T10:02:25.269Z,55008.00
2019-04-10T10:03:24.874Z,39904.00
2019-04-10T10:04:25.740Z,28640.00
2019-04-10T10:05:24.871Z,34144.00
2019-04-10T10:06:30.755Z,35520.00
2019-04-10T10:07:26.334Z,34816.00
2019-04-10T10:08:24.869Z,34880.00
2019-04-10T10:09:25.976Z,50592.00
2019-04-10T10:10:24.794Z,47840.00
2019-04-10T10:11:24.804Z,40224.00
2019-04-10T10:12:25.664Z,39392.00
2019-04-10T10:13:25.576Z,34112.00
2019-04-10T10:14:24.758Z,32736.00
2019-04-10T10:15:25.278Z,35520.00
2019-04-10T10:16:25.474Z,55520.00
2019-04-10T10:17:24.723Z,35552.00
2019-04-10T10:18:25.598Z,45248.00
2019-04-10T10:19:25.873Z,57984.00
2019-04-10T10:20:25.839Z,60864.00
2019-04-10T10:21:24.693Z,40480.00
2019-04-10T10:22:25.255Z,36704.00
2019-04-10T10:23:25.596Z,57568.00
2019-04-10T10:24:24.711Z,46368.00
2019-04-10T10:25:24.635Z,35584.00
2019-04-10T10:26:24.640Z,42368.00
2019-04-10T10:27:24.753Z,54144.00
2019-04-10T10:28:24.602Z,44320.00
2019-04-10T10:29:24.587Z,37312.00
2019-04-10T10:30:25.140Z,47936.00
2019-04-10T10:31:24.583Z,56608.00
2019-04-10T10:32:24.759Z,56544.00
2019-04-10T10:33:25.731Z,35136.00
2019-04-10T10:34:24.536Z,30784.00
2019-04-10T10:35:25.205Z,30720.00
2019-04-10T10:36:34.737Z,47104.00
2019-04-10T10:37:26.435Z,40256.00
2019-04-10T10:38:25.172Z,42656.00
2019-04-10T10:39:24.487Z,50688.00
2019-04-10T10:40:25.530Z,58720.00
2019-04-10T10:41:24.471Z,55904.00
2019-04-10T10:42:24.455Z,43840.00
2019-04-10T10:43:24.580Z,56832.00
2019-04-10T10:44:24.428Z,70848.00
2019-04-10T10:45:24.989Z,67584.00
2019-04-10T10:46:25.171Z,41632.00
2019-04-10T10:47:24.401Z,65248.00
2019-04-10T10:48:24.383Z,36832.00
2019-04-10T10:49:24.422Z,43904.00
2019-04-10T10:50:25.508Z,48704.00
2019-04-10T10:51:24.573Z,58816.00
2019-04-10T10:52:24.345Z,50656.00
2019-04-10T10:53:24.339Z,48352.00
2019-04-10T10:54:25.025Z,34688.00
2019-04-10T10:55:25.327Z,59328.00
2019-04-10T10:56:24.502Z,46112.00
2019-04-10T10:57:24.865Z,60992.00
2019-04-10T10:58:24.295Z,56832.00
2019-04-10T10:59:25.186Z,42336.00
2019-04-10T11:00:25.198Z,47488.00
2019-04-10T11:01:24.267Z,74400.00
2019-04-10T11:02:25.451Z,85312.00
2019-04-10T11:03:24.484Z,93184.00
2019-04-10T11:04:24.227Z,70368.00
2019-04-10T11:05:25.193Z,74624.00
2019-04-10T11:06:24.761Z,73184.00
2019-04-10T11:07:24.560Z,85344.00
2019-04-10T11:08:24.179Z,75648.00
2019-04-10T11:09:24.165Z,115360.00
2019-04-10T11:10:27.375Z,114176.00
2019-04-10T11:11:24.193Z,110080.00
2019-04-10T11:12:24.250Z,98848.00
2019-04-10T11:13:24.291Z,56896.00
2019-04-10T11:14:24.113Z,56416.00
2019-04-10T11:15:24.106Z,40096.00
2019-04-10T11:16:24.857Z,65792.00
2019-04-10T11:17:25.432Z,83904.00
2019-04-10T11:18:24.769Z,60512.00
2019-04-10T11:19:24.063Z,65952.00
2019-04-10T11:20:24.183Z,86304.00
2019-04-10T11:21:24.777Z,92032.00
2019-04-10T11:22:25.795Z,95328.00
2019-04-10T11:23:24.551Z,95072.00
2019-04-10T11:24:25.454Z,95872.00
2019-04-10T11:25:24.003Z,90272.00
2019-04-10T11:26:25.577Z,53120.00
2019-04-10T11:27:25.230Z,75424.00
2019-04-10T11:28:28.668Z,93248.00
2019-04-10T11:29:25.102Z,85632.00
2019-04-10T11:30:24.897Z,83264.00
2019-04-10T11:31:25.095Z,86368.00
2019-04-10T11:32:24.050Z,95232.00
2019-04-10T11:33:24.999Z,102272.00
2019-04-10T11:34:24.299Z,104416.00
2019-04-10T11:35:24.289Z,101408.00
2019-04-10T11:36:23.904Z,96064.00
2019-04-10T11:37:34.346Z,93984.00
2019-04-10T11:38:25.884Z,101376.00
2019-04-10T11:39:26.806Z,108352.00
2019-04-10T11:40:26.409Z,106144.00
2019-04-10T11:41:25.967Z,112480.00
2019-04-10T11:42:24.010Z,103456.00
2019-04-10T11:43:25.978Z,63040.00
2019-04-10T11:44:24.936Z,28480.00
2019-04-10T11:45:28.278Z,30272.00
2019-04-10T11:46:28.229Z,86432.00
2019-04-10T11:47:26.614Z,47008.00
2019-04-10T11:48:25.655Z,42400.00
2019-04-10T11:49:23.847Z,72640.00
2019-04-10T11:50:25.425Z,31008.00
2019-04-10T11:51:26.318Z,29984.00
2019-04-10T11:52:33.807Z,110496.00
2019-04-10T11:53:27.158Z,77376.00
2019-04-10T11:54:26.933Z,57120.00
2019-04-10T11:55:27.924Z,77152.00
2019-04-10T11:56:24.284Z,28320.00
2019-04-10T11:57:23.672Z,22912.00
2019-04-10T11:58:25.243Z,20000.00
2019-04-10T11:59:24.293Z,17888.00
2019-04-10T12:00:26.723Z,16200.00
2019-04-10T12:01:25.420Z,15628.00
2019-04-10T12:02:24.991Z,15200.00
2019-04-10T12:03:24.606Z,15192.00
2019-04-10T12:04:25.466Z,15876.00
2019-04-10T12:05:25.443Z,17056.00
2019-04-10T12:06:25.344Z,18368.00
2019-04-10T12:07:54.977Z,19328.00
2019-04-10T12:08:45.274Z,20672.00
2019-04-10T12:10:16.954Z,23008.00
2019-04-10T12:11:24.737Z,29440.00
2019-04-10T12:12:23.771Z,30176.00
2019-04-10T12:13:24.156Z,35264.00
2019-04-10T12:14:23.773Z,55072.00
2019-04-10T12:15:23.908Z,116480.00
2019-04-10T12:16:23.470Z,87328.00
2019-04-10T12:17:23.477Z,31008.00
2019-04-10T12:18:24.606Z,27200.00
2019-04-10T12:19:25.025Z,27072.00
2019-04-10T12:20:23.430Z,27136.00